sensor_id;sensor_type;location;lat;lon;timestamp;pressure;altitude;pressure_sealevel;temperature;humidity
70544;BME280;58097;48.364;-1.224;2023-04-20T00:01:05;99648.91;;;12.26;65.82
70544;BME280;58097;48.364;-1.224;2023-04-20T00:03:31;99643.56;;;12.24;65.78
70544;BME280;58097;48.364;-1.224;2023-04-20T00:05:57;99639.59;;;12.19;66.20
70544;BME280;58097;48.364;-1.224;2023-04-20T00:08:26;99634.06;;;12.19;66.27
70544;BME280;58097;48.364;-1.224;2023-04-20T00:10:51;99636.84;;;12.10;66.80
70544;BME280;58097;48.364;-1.224;2023-04-20T00:13:16;99639.78;;;12.09;66.92
70544;BME280;58097;48.364;-1.224;2023-04-20T00:15:42;99637.69;;;12.11;66.58
70544;BME280;58097;48.364;-1.224;2023-04-20T00:18:07;99624.03;;;12.09;66.83
70544;BME280;58097;48.364;-1.224;2023-04-20T00:20:32;99631.47;;;12.09;66.99
70544;BME280;58097;48.364;-1.224;2023-04-20T00:22:59;99631.66;;;12.07;66.56
70544;BME280;58097;48.364;-1.224;2023-04-20T00:25:24;99632.00;;;12.04;67.03
70544;BME280;58097;48.364;-1.224;2023-04-20T00:27:50;99625.47;;;11.97;67.53
70544;BME280;58097;48.364;-1.224;2023-04-20T00:30:15;99627.72;;;11.94;67.52
70544;BME280;58097;48.364;-1.224;2023-04-20T00:32:40;99624.44;;;11.90;67.62
70544;BME280;58097;48.364;-1.224;2023-04-20T00:35:06;99616.84;;;11.92;67.90
70544;BME280;58097;48.364;-1.224;2023-04-20T00:37:31;99619.09;;;11.89;67.78
70544;BME280;58097;48.364;-1.224;2023-04-20T00:39:57;99615.97;;;11.92;67.67
70544;BME280;58097;48.364;-1.224;2023-04-20T00:42:22;99617.00;;;11.83;69.03
70544;BME280;58097;48.364;-1.224;2023-04-20T00:44:48;99620.44;;;11.76;69.30
70544;BME280;58097;48.364;-1.224;2023-04-20T00:47:15;99618.22;;;11.72;69.60
70544;BME280;58097;48.364;-1.224;2023-04-20T00:49:40;99611.81;;;11.71;69.82
70544;BME280;58097;48.364;-1.224;2023-04-20T00:52:06;99606.63;;;11.68;69.94
70544;BME280;58097;48.364;-1.224;2023-04-20T00:54:31;99602.31;;;11.66;70.13
70544;BME280;58097;48.364;-1.224;2023-04-20T00:56:57;99599.03;;;11.62;69.61
70544;BME280;58097;48.364;-1.224;2023-04-20T00:59:24;99599.22;;;11.61;70.45
70544;BME280;58097;48.364;-1.224;2023-04-20T01:01:49;99597.47;;;11.52;71.09
70544;BME280;58097;48.364;-1.224;2023-04-20T01:04:15;99590.56;;;11.47;71.53
70544;BME280;58097;48.364;-1.224;2023-04-20T01:06:41;99592.28;;;11.48;70.54
70544;BME280;58097;48.364;-1.224;2023-04-20T01:09:06;99597.16;;;11.38;71.54
70544;BME280;58097;48.364;-1.224;2023-04-20T01:11:32;99590.06;;;11.36;71.10
70544;BME280;58097;48.364;-1.224;2023-04-20T01:13:57;99585.75;;;11.33;72.14
70544;BME280;58097;48.364;-1.224;2023-04-20T01:16:23;99586.13;;;11.30;71.77
70544;BME280;58097;48.364;-1.224;2023-04-20T01:18:49;99593.72;;;11.28;71.86
70544;BME280;58097;48.364;-1.224;2023-04-20T01:21:16;99582.81;;;11.18;72.71
70544;BME280;58097;48.364;-1.224;2023-04-20T01:23:42;99587.47;;;11.18;72.47
70544;BME280;58097;48.364;-1.224;2023-04-20T01:26:09;99581.09;;;11.17;71.70
70544;BME280;58097;48.364;-1.224;2023-04-20T01:28:35;99577.81;;;11.14;72.23
70544;BME280;58097;48.364;-1.224;2023-04-20T01:31:04;99575.72;;;11.08;72.47
70544;BME280;58097;48.364;-1.224;2023-04-20T01:33:30;99565.53;;;11.00;72.95
70544;BME280;58097;48.364;-1.224;2023-04-20T01:35:56;99567.28;;;11.01;72.82
70544;BME280;58097;48.364;-1.224;2023-04-20T01:38:22;99571.25;;;10.99;72.69
70544;BME280;58097;48.364;-1.224;2023-04-20T01:40:48;99570.53;;;10.97;72.40
70544;BME280;58097;48.364;-1.224;2023-04-20T01:43:14;99558.09;;;10.93;72.08
70544;BME280;58097;48.364;-1.224;2023-04-20T01:45:40;99568.47;;;10.91;71.89
70544;BME280;58097;48.364;-1.224;2023-04-20T01:48:05;99562.06;;;10.90;71.83
70544;BME280;58097;48.364;-1.224;2023-04-20T01:50:30;99556.19;;;10.85;71.98
70544;BME280;58097;48.364;-1.224;2023-04-20T01:52:56;99567.78;;;10.80;72.11
70544;BME280;58097;48.364;-1.224;2023-04-20T01:55:21;99563.28;;;10.79;71.07
70544;BME280;58097;48.364;-1.224;2023-04-20T01:57:46;99563.44;;;10.78;70.63
70544;BME280;58097;48.364;-1.224;2023-04-20T02:00:12;99558.25;;;10.75;70.47
70544;BME280;58097;48.364;-1.224;2023-04-20T02:02:38;99552.06;;;10.73;70.54
70544;BME280;58097;48.364;-1.224;2023-04-20T02:05:03;99558.06;;;10.68;70.16
70544;BME280;58097;48.364;-1.224;2023-04-20T02:07:29;99560.31;;;10.65;69.79
70544;BME280;58097;48.364;-1.224;2023-04-20T02:09:55;99560.81;;;10.60;69.68
70544;BME280;58097;48.364;-1.224;2023-04-20T02:12:20;99558.06;;;10.60;69.42
70544;BME280;58097;48.364;-1.224;2023-04-20T02:14:45;99563.41;;;10.53;69.29
70544;BME280;58097;48.364;-1.224;2023-04-20T02:17:11;99561.50;;;10.54;69.31
70544;BME280;58097;48.364;-1.224;2023-04-20T02:19:36;99557.34;;;10.50;69.13
70544;BME280;58097;48.364;-1.224;2023-04-20T02:22:01;99554.06;;;10.46;68.72
70544;BME280;58097;48.364;-1.224;2023-04-20T02:24:27;99559.03;;;10.35;68.49
70544;BME280;58097;48.364;-1.224;2023-04-20T02:26:52;99554.38;;;10.35;68.53
70544;BME280;58097;48.364;-1.224;2023-04-20T02:29:18;99559.53;;;10.30;68.39
70544;BME280;58097;48.364;-1.224;2023-04-20T02:31:43;99564.91;;;10.32;68.49
70544;BME280;58097;48.364;-1.224;2023-04-20T02:34:09;99559.03;;;10.35;68.03
70544;BME280;58097;48.364;-1.224;2023-04-20T02:36:35;99559.53;;;10.30;67.93
70544;BME280;58097;48.364;-1.224;2023-04-20T02:39:00;99558.50;;;10.23;67.48
70544;BME280;58097;48.364;-1.224;2023-04-20T02:41:26;99550.50;;;10.20;67.42
70544;BME280;58097;48.364;-1.224;2023-04-20T02:43:51;99561.72;;;10.18;67.09
70544;BME280;58097;48.364;-1.224;2023-04-20T02:46:17;99552.28;;;10.21;66.63
70544;BME280;58097;48.364;-1.224;2023-04-20T02:48:42;99557.25;;;10.17;65.96
70544;BME280;58097;48.364;-1.224;2023-04-20T02:51:08;99560.00;;;10.17;66.04
70544;BME280;58097;48.364;-1.224;2023-04-20T02:53:33;99562.59;;;10.19;65.99
70544;BME280;58097;48.364;-1.224;2023-04-20T02:55:59;99566.38;;;10.18;65.57
70544;BME280;58097;48.364;-1.224;2023-04-20T02:58:24;99567.97;;;10.20;65.70
70544;BME280;58097;48.364;-1.224;2023-04-20T03:00:50;99560.38;;;10.22;65.60
70544;BME280;58097;48.364;-1.224;2023-04-20T03:03:16;99558.50;;;10.23;65.48
70544;BME280;58097;48.364;-1.224;2023-04-20T03:05:42;99565.22;;;10.20;65.20
70544;BME280;58097;48.364;-1.224;2023-04-20T03:08:08;99562.53;;;10.11;65.26
70544;BME280;58097;48.364;-1.224;2023-04-20T03:10:33;99563.38;;;10.03;64.90
70544;BME280;58097;48.364;-1.224;2023-04-20T03:12:58;99562.34;;;10.04;64.95
70544;BME280;58097;48.364;-1.224;2023-04-20T03:15:24;99565.28;;;10.03;64.90
70544;BME280;58097;48.364;-1.224;2023-04-20T03:17:50;99566.13;;;9.95;65.09
70544;BME280;58097;48.364;-1.224;2023-04-20T03:20:15;99559.69;;;9.86;65.21
70544;BME280;58097;48.364;-1.224;2023-04-20T03:22:41;99577.47;;;9.84;65.39
70544;BME280;58097;48.364;-1.224;2023-04-20T03:25:06;99566.25;;;9.85;65.05
70544;BME280;58097;48.364;-1.224;2023-04-20T03:27:32;99558.84;;;9.86;65.20
70544;BME280;58097;48.364;-1.224;2023-04-20T03:29:58;99561.75;;;9.84;65.15
70544;BME280;58097;48.364;-1.224;2023-04-20T03:32:24;99565.69;;;9.82;64.90
70544;BME280;58097;48.364;-1.224;2023-04-20T03:34:49;99564.47;;;9.76;64.61
70544;BME280;58097;48.364;-1.224;2023-04-20T03:37:15;99566.00;;;9.71;64.60
70544;BME280;58097;48.364;-1.224;2023-04-20T03:39:40;99566.97;;;9.61;64.49
70544;BME280;58097;48.364;-1.224;2023-04-20T03:42:06;99569.38;;;9.56;64.14
70544;BME280;58097;48.364;-1.224;2023-04-20T03:44:31;99572.16;;;9.39;63.17
70544;BME280;58097;48.364;-1.224;2023-04-20T03:46:56;99572.50;;;9.36;63.46
70544;BME280;58097;48.364;-1.224;2023-04-20T03:49:23;99566.44;;;9.32;63.30
70544;BME280;58097;48.364;-1.224;2023-04-20T03:51:49;99574.00;;;9.30;63.43
70544;BME280;58097;48.364;-1.224;2023-04-20T03:54:15;99570.16;;;9.23;62.91
70544;BME280;58097;48.364;-1.224;2023-04-20T03:56:40;99578.59;;;9.21;62.58
70544;BME280;58097;48.364;-1.224;2023-04-20T03:59:05;99573.22;;;9.20;62.92
70544;BME280;58097;48.364;-1.224;2023-04-20T04:01:31;99568.75;;;9.19;63.02
70544;BME280;58097;48.364;-1.224;2023-04-20T04:03:56;99574.91;;;9.13;62.54
70544;BME280;58097;48.364;-1.224;2023-04-20T04:06:21;99571.97;;;9.14;62.77
70544;BME280;58097;48.364;-1.224;2023-04-20T04:08:47;99575.00;;;9.03;62.72
70544;BME280;58097;48.364;-1.224;2023-04-20T04:11:13;99573.19;;;8.94;62.57
70544;BME280;58097;48.364;-1.224;2023-04-20T04:13:38;99566.44;;;8.88;62.71
70544;BME280;58097;48.364;-1.224;2023-04-20T04:16:03;99564.38;;;8.90;62.50
70544;BME280;58097;48.364;-1.224;2023-04-20T04:18:30;99564.47;;;8.81;62.49
70544;BME280;58097;48.364;-1.224;2023-04-20T04:20:57;99560.16;;;8.78;61.94
70544;BME280;58097;48.364;-1.224;2023-04-20T04:23:22;99555.34;;;8.80;62.06
70544;BME280;58097;48.364;-1.224;2023-04-20T04:25:48;99563.69;;;8.71;60.94
70544;BME280;58097;48.364;-1.224;2023-04-20T04:28:13;99562.13;;;8.68;61.26
70544;BME280;58097;48.364;-1.224;2023-04-20T04:30:39;99560.94;;;8.71;60.94
70544;BME280;58097;48.364;-1.224;2023-04-20T04:33:04;99560.69;;;8.64;61.04
70544;BME280;58097;48.364;-1.224;2023-04-20T04:35:30;99553.88;;;8.68;61.16
70544;BME280;58097;48.364;-1.224;2023-04-20T04:37:56;99554.72;;;8.68;61.56
70544;BME280;58097;48.364;-1.224;2023-04-20T04:40:21;99560.09;;;8.70;61.68
70544;BME280;58097;48.364;-1.224;2023-04-20T04:42:47;99557.16;;;8.72;61.88
70544;BME280;58097;48.364;-1.224;2023-04-20T04:45:12;99558.19;;;8.71;62.00
70544;BME280;58097;48.364;-1.224;2023-04-20T04:47:38;99559.22;;;8.69;61.78
70544;BME280;58097;48.364;-1.224;2023-04-20T04:50:07;99561.09;;;8.69;61.90
70544;BME280;58097;48.364;-1.224;2023-04-20T04:52:34;99562.25;;;8.66;61.81
70544;BME280;58097;48.364;-1.224;2023-04-20T04:55:00;99567.38;;;8.61;61.80
70544;BME280;58097;48.364;-1.224;2023-04-20T04:57:25;99561.47;;;8.56;61.84
70544;BME280;58097;48.364;-1.224;2023-04-20T04:59:51;99560.22;;;8.51;61.52
70544;BME280;58097;48.364;-1.224;2023-04-20T05:02:17;99557.25;;;8.44;61.54
70544;BME280;58097;48.364;-1.224;2023-04-20T05:04:42;99560.16;;;8.33;61.13
70544;BME280;58097;48.364;-1.224;2023-04-20T05:07:07;99556.00;;;8.29;60.97
70544;BME280;58097;48.364;-1.224;2023-04-20T05:09:35;99562.13;;;8.23;61.28
70544;BME280;58097;48.364;-1.224;2023-04-20T05:12:00;99565.59;;;8.25;61.53
70544;BME280;58097;48.364;-1.224;2023-04-20T05:14:27;99567.09;;;8.19;61.27
70544;BME280;58097;48.364;-1.224;2023-04-20T05:16:53;99567.94;;;8.20;61.26
70544;BME280;58097;48.364;-1.224;2023-04-20T05:19:18;99568.25;;;8.17;61.17
70544;BME280;58097;48.364;-1.224;2023-04-20T05:21:43;99568.44;;;8.05;60.50
70544;BME280;58097;48.364;-1.224;2023-04-20T05:24:09;99570.91;;;8.08;60.49
70544;BME280;58097;48.364;-1.224;2023-04-20T05:26:34;99573.09;;;8.05;60.63
70544;BME280;58097;48.364;-1.224;2023-04-20T05:28:59;99574.16;;;7.94;59.83
70544;BME280;58097;48.364;-1.224;2023-04-20T05:31:25;99574.63;;;7.90;59.61
70544;BME280;58097;48.364;-1.224;2023-04-20T05:33:51;99577.69;;;7.87;59.65
70544;BME280;58097;48.364;-1.224;2023-04-20T05:36:16;99582.03;;;7.89;59.89
70544;BME280;58097;48.364;-1.224;2023-04-20T05:38:42;99582.59;;;7.93;60.08
70544;BME280;58097;48.364;-1.224;2023-04-20T05:41:07;99587.53;;;7.89;59.43
70544;BME280;58097;48.364;-1.224;2023-04-20T05:43:32;99590.38;;;7.97;60.03
70544;BME280;58097;48.364;-1.224;2023-04-20T05:45:58;99589.75;;;8.03;60.27
70544;BME280;58097;48.364;-1.224;2023-04-20T05:48:23;99595.25;;;8.03;58.99
70544;BME280;58097;48.364;-1.224;2023-04-20T05:50:51;99591.94;;;8.00;59.74
70544;BME280;58097;48.364;-1.224;2023-04-20T05:53:17;99599.28;;;8.09;60.09
70544;BME280;58097;48.364;-1.224;2023-04-20T05:55:42;99598.28;;;8.10;59.88
70544;BME280;58097;48.364;-1.224;2023-04-20T05:58:07;99591.31;;;8.16;60.26
70544;BME280;58097;48.364;-1.224;2023-04-20T06:00:33;99592.56;;;8.21;60.26
70544;BME280;58097;48.364;-1.224;2023-04-20T06:02:58;99592.09;;;8.26;60.19
70544;BME280;58097;48.364;-1.224;2023-04-20T06:05:24;99594.38;;;8.30;60.38
70544;BME280;58097;48.364;-1.224;2023-04-20T06:07:49;99598.44;;;8.36;60.32
70544;BME280;58097;48.364;-1.224;2023-04-20T06:10:14;99596.28;;;8.30;60.00
70544;BME280;58097;48.364;-1.224;2023-04-20T06:12:40;99599.19;;;8.28;60.18
70544;BME280;58097;48.364;-1.224;2023-04-20T06:15:05;99607.72;;;8.35;60.30
70544;BME280;58097;48.364;-1.224;2023-04-20T06:17:36;99602.91;;;8.37;60.11
70544;BME280;58097;48.364;-1.224;2023-04-20T06:20:04;99599.72;;;8.32;59.97
70544;BME280;58097;48.364;-1.224;2023-04-20T06:22:30;99601.47;;;8.33;60.04
70544;BME280;58097;48.364;-1.224;2023-04-20T06:24:56;99601.28;;;8.44;59.78
70544;BME280;58097;48.364;-1.224;2023-04-20T06:27:23;99601.06;;;8.55;60.01
70544;BME280;58097;48.364;-1.224;2023-04-20T06:29:48;99601.63;;;8.59;58.96
70544;BME280;58097;48.364;-1.224;2023-04-20T06:32:15;99595.19;;;8.68;59.40
70544;BME280;58097;48.364;-1.224;2023-04-20T06:34:40;99600.28;;;8.81;57.86
70544;BME280;58097;48.364;-1.224;2023-04-20T06:37:05;99601.78;;;8.93;57.55
70544;BME280;58097;48.364;-1.224;2023-04-20T06:39:33;99605.94;;;9.15;58.69
70544;BME280;58097;48.364;-1.224;2023-04-20T06:41:59;99605.06;;;9.32;58.09
70544;BME280;58097;48.364;-1.224;2023-04-20T06:44:25;99600.50;;;9.49;57.42
70544;BME280;58097;48.364;-1.224;2023-04-20T06:46:50;99595.44;;;9.62;57.64
70544;BME280;58097;48.364;-1.224;2023-04-20T06:49:16;99603.28;;;9.83;58.12
70544;BME280;58097;48.364;-1.224;2023-04-20T06:51:41;99596.16;;;10.06;56.96
70544;BME280;58097;48.364;-1.224;2023-04-20T06:54:07;99594.63;;;10.12;56.26
70544;BME280;58097;48.364;-1.224;2023-04-20T06:56:32;99603.19;;;9.92;55.64
70544;BME280;58097;48.364;-1.224;2023-04-20T06:58:57;99591.00;;;10.11;56.16
70544;BME280;58097;48.364;-1.224;2023-04-20T07:01:23;99593.94;;;10.10;55.05
70544;BME280;58097;48.364;-1.224;2023-04-20T07:03:48;99587.50;;;10.27;56.02
70544;BME280;58097;48.364;-1.224;2023-04-20T07:06:14;99593.41;;;10.40;55.36
70544;BME280;58097;48.364;-1.224;2023-04-20T07:08:41;99586.72;;;10.51;55.52
70544;BME280;58097;48.364;-1.224;2023-04-20T07:11:06;99594.31;;;10.65;55.85
70544;BME280;58097;48.364;-1.224;2023-04-20T07:13:32;99600.06;;;10.80;55.51
70544;BME280;58097;48.364;-1.224;2023-04-20T07:15:57;99593.34;;;10.74;54.16
70544;BME280;58097;48.364;-1.224;2023-04-20T07:18:23;99596.06;;;10.66;53.81
70544;BME280;58097;48.364;-1.224;2023-04-20T07:20:48;99591.78;;;10.80;55.03
70544;BME280;58097;48.364;-1.224;2023-04-20T07:23:13;99585.38;;;10.88;54.01
70544;BME280;58097;48.364;-1.224;2023-04-20T07:25:39;99590.91;;;10.88;55.52
70544;BME280;58097;48.364;-1.224;2023-04-20T07:28:04;99589.88;;;10.89;55.22
70544;BME280;58097;48.364;-1.224;2023-04-20T07:30:29;99592.16;;;11.01;54.22
70544;BME280;58097;48.364;-1.224;2023-04-20T07:32:56;99595.78;;;11.10;54.08
70544;BME280;58097;48.364;-1.224;2023-04-20T07:35:21;99589.56;;;11.00;52.91
70544;BME280;58097;48.364;-1.224;2023-04-20T07:37:47;99593.34;;;11.23;54.91
70544;BME280;58097;48.364;-1.224;2023-04-20T07:40:12;99590.94;;;11.44;55.24
70544;BME280;58097;48.364;-1.224;2023-04-20T07:42:37;99592.63;;;11.54;54.29
70544;BME280;58097;48.364;-1.224;2023-04-20T07:45:04;99589.53;;;11.48;52.59
70544;BME280;58097;48.364;-1.224;2023-04-20T07:47:31;99587.78;;;11.64;53.69
70544;BME280;58097;48.364;-1.224;2023-04-20T07:49:57;99595.75;;;11.59;52.52
70544;BME280;58097;48.364;-1.224;2023-04-20T07:52:23;99590.84;;;11.77;53.49
70544;BME280;58097;48.364;-1.224;2023-04-20T07:54:48;99584.09;;;11.96;53.59
70544;BME280;58097;48.364;-1.224;2023-04-20T07:57:14;99589.25;;;12.15;52.54
70544;BME280;58097;48.364;-1.224;2023-04-20T07:59:39;99590.25;;;12.14;51.68
70544;BME280;58097;48.364;-1.224;2023-04-20T08:02:05;99591.28;;;12.13;52.14
70544;BME280;58097;48.364;-1.224;2023-04-20T08:04:30;99593.75;;;12.08;52.32
70544;BME280;58097;48.364;-1.224;2023-04-20T08:06:56;99592.88;;;12.16;52.04
70544;BME280;58097;48.364;-1.224;2023-04-20T08:09:21;99595.47;;;12.09;52.43
70544;BME280;58097;48.364;-1.224;2023-04-20T08:11:47;99592.81;;;12.24;52.07
70544;BME280;58097;48.364;-1.224;2023-04-20T08:14:13;99592.91;;;12.38;51.49
70544;BME280;58097;48.364;-1.224;2023-04-20T08:16:39;99591.00;;;12.39;51.49
70544;BME280;58097;48.364;-1.224;2023-04-20T08:19:05;99594.75;;;12.54;51.78
70544;BME280;58097;48.364;-1.224;2023-04-20T08:21:38;99589.66;;;12.66;51.18
70544;BME280;58097;48.364;-1.224;2023-04-20T08:24:05;99594.13;;;12.75;51.35
70544;BME280;58097;48.364;-1.224;2023-04-20T08:26:31;99604.84;;;12.78;51.99
70544;BME280;58097;48.364;-1.224;2023-04-20T08:28:57;99591.88;;;12.70;50.59
70544;BME280;58097;48.364;-1.224;2023-04-20T08:31:22;99600.72;;;12.97;53.02
70544;BME280;58097;48.364;-1.224;2023-04-20T08:33:48;99605.94;;;13.23;51.84
70544;BME280;58097;48.364;-1.224;2023-04-20T08:36:13;99602.44;;;12.98;50.14
70544;BME280;58097;48.364;-1.224;2023-04-20T08:38:39;99594.94;;;13.07;51.04
70544;BME280;58097;48.364;-1.224;2023-04-20T08:41:04;99600.06;;;13.18;51.12
70544;BME280;58097;48.364;-1.224;2023-04-20T08:43:30;99603.56;;;13.12;51.67
70544;BME280;58097;48.364;-1.224;2023-04-20T08:45:57;99599.31;;;13.24;51.47
70544;BME280;58097;48.364;-1.224;2023-04-20T08:48:24;99603.50;;;12.97;49.94
70544;BME280;58097;48.364;-1.224;2023-04-20T08:50:51;99608.34;;;12.95;49.53
70544;BME280;58097;48.364;-1.224;2023-04-20T08:53:17;99606.41;;;13.03;51.29
70544;BME280;58097;48.364;-1.224;2023-04-20T08:55:42;99610.75;;;12.98;50.31
70544;BME280;58097;48.364;-1.224;2023-04-20T08:58:07;99602.81;;;12.95;49.65
70544;BME280;58097;48.364;-1.224;2023-04-20T09:00:33;99602.44;;;12.98;50.01
70544;BME280;58097;48.364;-1.224;2023-04-20T09:02:58;99605.19;;;13.06;51.26
70544;BME280;58097;48.364;-1.224;2023-04-20T09:05:27;99603.13;;;13.00;49.59
70544;BME280;58097;48.364;-1.224;2023-04-20T09:07:54;99614.44;;;13.21;49.15
70544;BME280;58097;48.364;-1.224;2023-04-20T09:10:21;99608.28;;;13.34;48.66
70544;BME280;58097;48.364;-1.224;2023-04-20T09:12:48;99619.50;;;13.41;50.00
70544;BME280;58097;48.364;-1.224;2023-04-20T09:15:27;99617.50;;;13.49;50.26
70544;BME280;58097;48.364;-1.224;2023-04-20T09:17:53;99613.44;;;13.60;48.25
70544;BME280;58097;48.364;-1.224;2023-04-20T09:20:32;99604.41;;;13.58;49.59
70544;BME280;58097;48.364;-1.224;2023-04-20T09:23:16;99608.47;;;13.85;49.72
70544;BME280;58097;48.364;-1.224;2023-04-20T09:25:43;99604.72;;;13.78;47.78
70544;BME280;58097;48.364;-1.224;2023-04-20T09:28:11;99616.31;;;13.81;49.24
70544;BME280;58097;48.364;-1.224;2023-04-20T09:30:39;99620.63;;;13.84;48.25
70544;BME280;58097;48.364;-1.224;2023-04-20T09:33:05;99615.06;;;13.84;47.90
70544;BME280;58097;48.364;-1.224;2023-04-20T09:35:33;99621.25;;;13.94;48.66
70544;BME280;58097;48.364;-1.224;2023-04-20T09:37:58;99618.25;;;14.10;48.42
70544;BME280;58097;48.364;-1.224;2023-04-20T09:40:24;99616.06;;;14.06;48.82
70544;BME280;58097;48.364;-1.224;2023-04-20T09:42:52;99618.47;;;14.09;48.32
70544;BME280;58097;48.364;-1.224;2023-04-20T09:45:17;99614.38;;;14.49;48.98
70544;BME280;58097;48.364;-1.224;2023-04-20T09:47:43;99614.63;;;14.39;45.81
70544;BME280;58097;48.364;-1.224;2023-04-20T09:50:10;99601.97;;;14.37;47.73
70544;BME280;58097;48.364;-1.224;2023-04-20T09:52:36;99607.31;;;14.68;49.52
70544;BME280;58097;48.364;-1.224;2023-04-20T09:55:04;99602.53;;;14.62;45.89
70544;BME280;58097;48.364;-1.224;2023-04-20T09:57:31;99601.50;;;14.63;45.36
70544;BME280;58097;48.364;-1.224;2023-04-20T09:59:57;99602.75;;;14.60;45.10
70544;BME280;58097;48.364;-1.224;2023-04-20T10:02:24;99606.31;;;14.54;45.55
70544;BME280;58097;48.364;-1.224;2023-04-20T10:04:56;99612.81;;;14.61;46.11
70544;BME280;58097;48.364;-1.224;2023-04-20T10:07:26;99608.03;;;14.91;45.85
70544;BME280;58097;48.364;-1.224;2023-04-20T10:12:33;99605.56;;;14.81;44.88
70544;BME280;58097;48.364;-1.224;2023-04-20T10:15:01;99601.09;;;15.02;44.83
70544;BME280;58097;48.364;-1.224;2023-04-20T10:17:30;99615.09;;;15.08;43.19
70544;BME280;58097;48.364;-1.224;2023-04-20T10:19:56;99600.22;;;15.01;43.33
70544;BME280;58097;48.364;-1.224;2023-04-20T10:22:28;99598.91;;;14.97;45.36
70544;BME280;58097;48.364;-1.224;2023-04-20T10:24:57;99589.31;;;15.21;45.72
70544;BME280;58097;48.364;-1.224;2023-04-20T10:27:22;99596.19;;;15.25;43.37
70544;BME280;58097;48.364;-1.224;2023-04-20T10:29:48;99595.47;;;15.16;43.17
70544;BME280;58097;48.364;-1.224;2023-04-20T10:32:24;99587.97;;;15.17;42.07
70544;BME280;58097;48.364;-1.224;2023-04-20T10:35:03;99587.97;;;15.17;45.64
70544;BME280;58097;48.364;-1.224;2023-04-20T10:37:30;99584.59;;;15.22;43.41
70544;BME280;58097;48.364;-1.224;2023-04-20T10:39:56;99592.28;;;15.19;41.48
70544;BME280;58097;48.364;-1.224;2023-04-20T10:42:22;99590.03;;;15.30;43.72
70544;BME280;58097;48.364;-1.224;2023-04-20T10:44:48;99587.59;;;15.20;41.66
70544;BME280;58097;48.364;-1.224;2023-04-20T10:47:14;99586.41;;;15.08;41.40
70544;BME280;58097;48.364;-1.224;2023-04-20T10:49:40;99582.72;;;15.29;43.18
70544;BME280;58097;48.364;-1.224;2023-04-20T10:52:05;99580.38;;;15.54;43.60
70544;BME280;58097;48.364;-1.224;2023-04-20T10:54:38;99590.06;;;15.58;40.75
70544;BME280;58097;48.364;-1.224;2023-04-20T10:57:04;99579.81;;;15.58;42.51
70544;BME280;58097;48.364;-1.224;2023-04-20T10:59:31;99583.16;;;16.03;44.32
70544;BME280;58097;48.364;-1.224;2023-04-20T11:01:56;99573.91;;;15.96;40.19
70544;BME280;58097;48.364;-1.224;2023-04-20T11:04:29;99570.94;;;16.04;41.31
70544;BME280;58097;48.364;-1.224;2023-04-20T11:07:03;99576.50;;;16.38;43.14
70544;BME280;58097;48.364;-1.224;2023-04-20T11:09:30;99580.94;;;16.67;42.31
70544;BME280;58097;48.364;-1.224;2023-04-20T11:12:07;99574.25;;;16.62;40.36
70544;BME280;58097;48.364;-1.224;2023-04-20T11:14:37;99576.59;;;16.52;39.42
70544;BME280;58097;48.364;-1.224;2023-04-20T11:17:04;99567.38;;;16.58;40.68
70544;BME280;58097;48.364;-1.224;2023-04-20T11:19:32;99558.34;;;16.56;38.26
70544;BME280;58097;48.364;-1.224;2023-04-20T11:21:58;99563.44;;;16.46;38.04
70544;BME280;58097;48.364;-1.224;2023-04-20T11:24:26;99567.66;;;16.28;38.19
70544;BME280;58097;48.364;-1.224;2023-04-20T11:26:52;99553.72;;;16.28;36.79
70544;BME280;58097;48.364;-1.224;2023-04-20T11:32:04;99556.94;;;16.25;36.82
70544;BME280;58097;48.364;-1.224;2023-04-20T11:34:31;99547.81;;;16.51;40.45
70544;BME280;58097;48.364;-1.224;2023-04-20T11:37:05;99550.63;;;16.58;41.09
70544;BME280;58097;48.364;-1.224;2023-04-20T11:39:32;99545.13;;;16.71;38.28
70544;BME280;58097;48.364;-1.224;2023-04-20T11:41:58;99552.91;;;16.95;39.77
70544;BME280;58097;48.364;-1.224;2023-04-20T11:44:24;99544.97;;;16.86;37.29
70544;BME280;58097;48.364;-1.224;2023-04-20T11:46:50;99544.97;;;16.99;38.56
70544;BME280;58097;48.364;-1.224;2023-04-20T11:49:21;99539.00;;;17.15;40.95
70544;BME280;58097;48.364;-1.224;2023-04-20T11:51:47;99534.72;;;17.19;38.68
70544;BME280;58097;48.364;-1.224;2023-04-20T11:54:13;99539.81;;;16.96;37.40
70544;BME280;58097;48.364;-1.224;2023-04-20T11:56:40;99543.09;;;17.26;39.80
70544;BME280;58097;48.364;-1.224;2023-04-20T11:59:09;99543.72;;;17.08;36.20
70544;BME280;58097;48.364;-1.224;2023-04-20T12:01:35;99533.19;;;17.03;36.99
70544;BME280;58097;48.364;-1.224;2023-04-20T12:04:02;99537.88;;;16.96;37.41
70544;BME280;58097;48.364;-1.224;2023-04-20T12:06:27;99539.22;;;17.14;38.12
70544;BME280;58097;48.364;-1.224;2023-04-20T12:08:53;99533.81;;;16.92;36.57
70544;BME280;58097;48.364;-1.224;2023-04-20T12:11:19;99538.31;;;16.93;38.46
70544;BME280;58097;48.364;-1.224;2023-04-20T12:13:45;99521.09;;;16.70;38.00
70544;BME280;58097;48.364;-1.224;2023-04-20T12:16:10;99532.19;;;16.57;35.75
70544;BME280;58097;48.364;-1.224;2023-04-20T12:18:36;99541.09;;;16.87;39.70
70544;BME280;58097;48.364;-1.224;2023-04-20T12:21:02;99527.19;;;17.13;39.37
70544;BME280;58097;48.364;-1.224;2023-04-20T12:23:27;99542.38;;;16.78;37.82
70544;BME280;58097;48.364;-1.224;2023-04-20T12:25:52;99532.25;;;16.70;36.49
70544;BME280;58097;48.364;-1.224;2023-04-20T12:28:18;99546.53;;;16.54;37.90
70544;BME280;58097;48.364;-1.224;2023-04-20T12:30:43;99547.19;;;16.56;36.43
70544;BME280;58097;48.364;-1.224;2023-04-20T12:33:08;99539.47;;;16.58;36.92
70544;BME280;58097;48.364;-1.224;2023-04-20T12:35:34;99536.97;;;16.69;38.65
70544;BME280;58097;48.364;-1.224;2023-04-20T12:38:00;99539.06;;;16.61;38.68
70544;BME280;58097;48.364;-1.224;2023-04-20T12:40:25;99536.38;;;16.94;39.17
70544;BME280;58097;48.364;-1.224;2023-04-20T12:42:50;99546.03;;;16.91;38.33
70544;BME280;58097;48.364;-1.224;2023-04-20T12:45:16;99531.81;;;16.73;38.28
70544;BME280;58097;48.364;-1.224;2023-04-20T12:47:41;99532.25;;;16.70;36.93
70544;BME280;58097;48.364;-1.224;2023-04-20T12:50:07;99536.81;;;16.91;38.93
70544;BME280;58097;48.364;-1.224;2023-04-20T12:52:33;99547.34;;;17.02;38.79